createdAt,value
2022-12-25T00:01:56.625Z,-24.67
2022-12-25T00:04:25.796Z,-24.72
2022-12-25T00:06:54.692Z,-24.74
2022-12-25T00:09:23.699Z,-24.81
2022-12-25T00:11:52.535Z,-24.80
2022-12-25T00:14:21.364Z,-24.83
2022-12-25T00:16:50.338Z,-24.83
2022-12-25T00:19:19.238Z,-24.84
2022-12-25T00:21:48.177Z,-24.91
2022-12-25T00:24:17.024Z,-24.94
2022-12-25T00:26:45.857Z,-24.94
2022-12-25T00:29:14.825Z,-24.95
2022-12-25T00:31:43.795Z,-24.91
2022-12-25T00:34:12.736Z,-24.92
2022-12-25T00:36:42.307Z,-24.92
2022-12-25T00:39:11.611Z,-24.97
2022-12-25T00:41:59.008Z,-25.06
2022-12-25T00:44:29.991Z,-25.17
2022-12-25T00:46:58.978Z,-25.27
2022-12-25T00:49:27.858Z,-25.33
2022-12-25T00:51:56.728Z,-25.38
2022-12-25T00:54:25.663Z,-25.35
2022-12-25T00:56:54.632Z,-25.35
2022-12-25T00:59:23.479Z,-25.38
2022-12-25T01:01:53.036Z,-25.42
2022-12-25T01:04:22.196Z,-25.41
2022-12-25T01:06:50.990Z,-25.45
2022-12-25T01:09:58.160Z,-25.48
2022-12-25T01:12:27.185Z,-25.61
2022-12-25T01:14:56.221Z,-25.58
2022-12-25T01:17:25.271Z,-25.59
2022-12-25T01:19:54.181Z,-25.62
2022-12-25T01:22:23.120Z,-25.66
2022-12-25T01:24:52.179Z,-25.66
2022-12-25T01:27:21.065Z,-25.64
2022-12-25T01:29:49.886Z,-25.64
2022-12-25T01:32:19.047Z,-25.58
2022-12-25T01:34:52.092Z,-25.49
2022-12-25T01:37:25.797Z,-25.39
2022-12-25T01:39:54.612Z,-25.30
2022-12-25T01:42:24.675Z,-25.19
2022-12-25T01:44:53.496Z,-25.12
2022-12-25T01:47:22.322Z,-25.05
2022-12-25T01:49:52.117Z,-25.05
2022-12-25T01:52:26.488Z,-24.99
2022-12-25T01:55:00.382Z,-24.95
2022-12-25T01:57:35.433Z,-24.95
2022-12-25T02:00:06.713Z,-24.93
2022-12-25T02:02:37.287Z,-24.85
2022-12-25T02:05:12.807Z,-24.76
2022-12-25T02:07:43.922Z,-24.70
2022-12-25T02:10:13.934Z,-24.57
2022-12-25T02:12:45.689Z,-24.45
2022-12-25T02:15:32.255Z,-24.33
2022-12-25T02:18:16.529Z,-24.22
2022-12-25T02:21:18.655Z,-24.05
2022-12-25T02:24:28.768Z,-23.90
2022-12-25T02:27:06.450Z,-23.73
2022-12-25T02:29:54.528Z,-23.38
2022-12-25T02:32:36.825Z,-22.25
2022-12-25T02:35:14.191Z,-20.91
2022-12-25T02:37:49.595Z,-19.64
2022-12-25T02:40:24.170Z,-18.81
2022-12-25T02:43:24.602Z,-17.94
2022-12-25T02:46:21.934Z,-16.95
2022-12-25T02:49:14.408Z,-16.22
2022-12-25T02:52:07.307Z,-15.93
2022-12-25T02:54:59.979Z,-15.59
2022-12-25T02:57:53.438Z,-16.58
2022-12-25T03:00:41.614Z,-18.12
2022-12-25T03:03:31.547Z,-19.25
2022-12-25T03:06:22.511Z,-19.86
2022-12-25T03:09:16.308Z,-20.17
2022-12-25T03:11:48.403Z,-20.45
2022-12-25T03:14:35.838Z,-20.66
2022-12-25T03:17:05.128Z,-20.84
2022-12-25T03:19:54.033Z,-21.00
2022-12-25T03:22:50.609Z,-21.17
2022-12-25T03:25:38.913Z,-21.32
2022-12-25T03:28:07.806Z,-21.43
2022-12-25T03:31:08.621Z,-21.48
2022-12-25T03:34:12.720Z,-21.55
2022-12-25T03:36:56.178Z,-21.60
2022-12-25T03:39:56.746Z,-21.65
2022-12-25T03:42:56.234Z,-21.69
2022-12-25T03:46:00.917Z,-21.68
2022-12-25T03:48:52.875Z,-21.61
2022-12-25T03:51:46.302Z,-21.56
2022-12-25T03:54:34.574Z,-21.53
2022-12-25T03:57:21.863Z,-21.47
2022-12-25T04:00:09.532Z,-21.42
2022-12-25T04:02:58.067Z,-21.36
2022-12-25T04:05:45.469Z,-21.34
2022-12-25T04:08:32.895Z,-21.23
2022-12-25T04:11:20.383Z,-21.11
2022-12-25T04:14:07.745Z,-20.99
2022-12-25T04:16:55.061Z,-20.88
2022-12-25T04:19:42.464Z,-20.72
2022-12-25T04:22:29.808Z,-20.51
2022-12-25T04:25:17.026Z,-20.36
2022-12-25T04:28:04.277Z,-20.16
2022-12-25T04:30:51.703Z,-20.10
2022-12-25T04:33:39.288Z,-19.95
2022-12-25T04:36:14.762Z,-19.76
2022-12-25T04:38:43.969Z,-19.60
2022-12-25T04:41:13.878Z,-19.44
2022-12-25T04:43:42.988Z,-19.27
2022-12-25T04:46:11.930Z,-19.17
2022-12-25T04:48:40.797Z,-19.04
2022-12-25T04:51:13.531Z,-18.93
2022-12-25T04:53:43.703Z,-18.83
2022-12-25T04:56:13.039Z,-18.76
2022-12-25T04:58:42.713Z,-18.74
2022-12-25T05:01:13.042Z,-18.68
2022-12-25T05:03:42.500Z,-18.68
2022-12-25T05:06:12.009Z,-18.65
2022-12-25T05:08:40.999Z,-18.66
2022-12-25T05:11:12.826Z,-18.69
2022-12-25T05:13:42.239Z,-18.71
2022-12-25T05:16:17.376Z,-18.83
2022-12-25T05:18:49.169Z,-18.93
2022-12-25T05:21:18.577Z,-19.00
2022-12-25T05:23:52.335Z,-19.04
2022-12-25T05:26:24.140Z,-19.04
2022-12-25T05:28:53.303Z,-19.01
2022-12-25T05:31:22.648Z,-18.99
2022-12-25T05:33:52.764Z,-19.06
2022-12-25T05:36:21.930Z,-19.11
2022-12-25T05:38:51.934Z,-19.12
2022-12-25T05:41:20.979Z,-19.07
2022-12-25T05:43:49.991Z,-19.07
2022-12-25T05:46:18.999Z,-19.03
2022-12-25T05:48:48.062Z,-18.99
2022-12-25T05:51:17.029Z,-18.97
2022-12-25T05:53:45.858Z,-18.95
2022-12-25T05:56:14.745Z,-18.89
2022-12-25T05:58:44.104Z,-18.85
2022-12-25T06:01:17.052Z,-18.81
2022-12-25T06:03:46.419Z,-18.78
2022-12-25T06:06:15.827Z,-18.72
2022-12-25T06:08:45.082Z,-18.78
2022-12-25T06:11:15.539Z,-18.87
2022-12-25T06:13:44.715Z,-18.93
2022-12-25T06:16:13.752Z,-18.94
2022-12-25T06:18:49.871Z,-18.96
2022-12-25T06:21:19.326Z,-18.95
2022-12-25T06:23:48.567Z,-18.94
2022-12-25T06:26:20.427Z,-18.91
2022-12-25T06:28:49.412Z,-18.83
2022-12-25T06:31:21.548Z,-18.78
2022-12-25T06:33:51.124Z,-18.71
2022-12-25T06:36:23.059Z,-18.64
2022-12-25T06:38:52.189Z,-18.57
2022-12-25T06:41:23.516Z,-18.50
2022-12-25T06:43:56.989Z,-18.49
2022-12-25T06:46:28.138Z,-18.50
2022-12-25T06:48:59.541Z,-18.52
2022-12-25T06:51:31.594Z,-18.60
2022-12-25T06:54:04.402Z,-18.61
2022-12-25T06:56:35.191Z,-18.60
2022-12-25T06:59:09.826Z,-18.54
2022-12-25T07:01:58.478Z,-18.52
2022-12-25T07:04:33.144Z,-18.50
2022-12-25T07:07:08.426Z,-18.46
2022-12-25T07:09:39.501Z,-18.46
2022-12-25T07:12:19.554Z,-18.47
2022-12-25T07:14:52.009Z,-18.53
2022-12-25T07:17:22.079Z,-18.54
2022-12-25T07:19:51.437Z,-18.63
2022-12-25T07:22:20.382Z,-18.77
2022-12-25T07:24:49.727Z,-18.81
2022-12-25T07:27:19.129Z,-18.81
2022-12-25T07:29:48.087Z,-18.81
2022-12-25T07:32:17.190Z,-18.87
2022-12-25T07:34:46.081Z,-18.93
2022-12-25T07:37:14.996Z,-18.99
2022-12-25T07:39:43.838Z,-19.02
2022-12-25T07:42:12.774Z,-19.10
2022-12-25T07:44:41.948Z,-19.16
2022-12-25T07:47:10.851Z,-19.17
2022-12-25T07:49:39.871Z,-19.17
2022-12-25T07:52:08.616Z,-19.19
2022-12-25T07:54:37.416Z,-19.23
2022-12-25T07:57:06.346Z,-19.29
2022-12-25T07:59:35.178Z,-19.35
2022-12-25T08:02:05.531Z,-19.39
2022-12-25T08:04:34.716Z,-19.47
2022-12-25T08:07:03.518Z,-19.51
2022-12-25T08:09:32.394Z,-19.49
2022-12-25T08:12:01.618Z,-19.24
2022-12-25T08:14:30.843Z,-19.19
2022-12-25T08:16:59.750Z,-19.33
2022-12-25T08:19:30.025Z,-19.55
2022-12-25T08:21:58.946Z,-19.74
2022-12-25T08:24:27.897Z,-19.85
2022-12-25T08:26:56.730Z,-19.97
2022-12-25T08:29:25.717Z,-20.04
2022-12-25T08:31:55.494Z,-20.09
2022-12-25T08:34:24.460Z,-20.12
2022-12-25T08:36:53.406Z,-20.17
2022-12-25T08:39:22.294Z,-20.21
2022-12-25T08:41:51.197Z,-20.26
2022-12-25T08:44:20.067Z,-20.33
2022-12-25T08:46:48.919Z,-20.35
2022-12-25T08:49:17.847Z,-20.39
2022-12-25T08:51:46.861Z,-20.46
2022-12-25T08:54:15.858Z,-20.51
2022-12-25T08:56:44.791Z,-20.55
2022-12-25T08:59:13.646Z,-20.57
2022-12-25T09:01:43.819Z,-20.55
2022-12-25T09:04:13.072Z,-20.55
2022-12-25T09:06:41.968Z,-20.61
2022-12-25T09:09:11.012Z,-20.63
2022-12-25T09:11:40.027Z,-20.69
2022-12-25T09:14:10.447Z,-20.73
2022-12-25T09:16:39.483Z,-20.73
2022-12-25T09:19:08.386Z,-20.77
2022-12-25T09:21:40.293Z,-20.78
2022-12-25T09:24:09.523Z,-20.79
2022-12-25T09:26:38.833Z,-20.80
2022-12-25T09:29:07.764Z,-20.79
2022-12-25T09:31:36.831Z,-20.82
2022-12-25T09:34:05.701Z,-20.81
2022-12-25T09:36:34.832Z,-20.81
2022-12-25T09:39:03.672Z,-20.84
2022-12-25T09:42:12.503Z,-20.86
2022-12-25T09:44:48.566Z,-20.88
2022-12-25T09:47:26.517Z,-20.89
2022-12-25T09:49:59.045Z,-20.95
2022-12-25T09:52:36.857Z,-20.96
2022-12-25T09:55:25.799Z,-20.98
2022-12-25T09:58:01.556Z,-21.00
2022-12-25T10:00:37.581Z,-21.04
2022-12-25T10:03:19.045Z,-21.08
2022-12-25T10:06:14.163Z,-21.08
2022-12-25T10:09:01.359Z,-21.08
2022-12-25T10:11:48.569Z,-21.14
2022-12-25T10:14:53.649Z,-21.18
2022-12-25T10:17:37.817Z,-21.18
2022-12-25T10:20:35.856Z,-21.21
2022-12-25T10:23:13.185Z,-21.23
2022-12-25T10:25:44.293Z,-21.22
2022-12-25T10:28:20.402Z,-21.17
2022-12-25T10:30:52.958Z,-21.15
2022-12-25T10:33:22.293Z,-21.13
2022-12-25T10:35:51.492Z,-21.11
2022-12-25T10:38:20.917Z,-21.09
2022-12-25T10:41:22.044Z,-21.11
2022-12-25T10:43:53.817Z,-21.09
2022-12-25T10:46:25.383Z,-21.05
2022-12-25T10:48:57.741Z,-20.97
2022-12-25T10:51:35.679Z,-20.91
2022-12-25T10:54:20.659Z,-20.84
2022-12-25T10:57:13.829Z,-20.78
2022-12-25T10:59:56.691Z,-20.72
2022-12-25T11:02:29.879Z,-20.65
2022-12-25T11:05:25.866Z,-20.60
2022-12-25T11:07:55.954Z,-20.57
2022-12-25T11:10:38.790Z,-20.54
2022-12-25T11:13:17.651Z,-20.54
2022-12-25T11:15:50.003Z,-20.57
2022-12-25T11:18:29.260Z,-20.52
2022-12-25T11:21:23.360Z,-20.49
2022-12-25T11:24:22.432Z,-20.42
2022-12-25T11:26:54.206Z,-20.44
2022-12-25T11:29:47.679Z,-20.43
2022-12-25T11:32:32.807Z,-20.45
2022-12-25T11:35:03.456Z,-20.49
2022-12-25T11:37:41.510Z,-20.47
2022-12-25T11:40:20.204Z,-20.47
2022-12-25T11:43:04.118Z,-20.44
2022-12-25T11:45:40.185Z,-20.48
2022-12-25T11:48:18.960Z,-20.52
2022-12-25T11:50:55.289Z,-20.54
2022-12-25T11:53:45.376Z,-20.53
2022-12-25T11:56:21.871Z,-20.56
2022-12-25T11:58:54.605Z,-20.60
2022-12-25T12:01:36.020Z,-20.61
2022-12-25T12:04:14.479Z,-20.65
2022-12-25T12:06:55.037Z,-20.68
2022-12-25T12:09:36.315Z,-20.68
2022-12-25T12:12:28.853Z,-20.75
2022-12-25T12:15:22.819Z,-20.84
2022-12-25T12:17:51.908Z,-20.87
2022-12-25T12:20:32.725Z,-20.94
2022-12-25T12:23:05.341Z,-20.92
2022-12-25T12:25:40.793Z,-20.93
2022-12-25T12:28:22.451Z,-20.91
2022-12-25T12:31:01.087Z,-20.88
2022-12-25T12:33:38.501Z,-20.87
2022-12-25T12:36:11.497Z,-20.87
2022-12-25T12:38:41.845Z,-20.83
2022-12-25T12:41:14.550Z,-20.83
2022-12-25T12:43:57.750Z,-20.82
2022-12-25T12:46:31.357Z,-20.78
2022-12-25T12:49:33.406Z,-20.77
2022-12-25T12:52:11.327Z,-20.67
2022-12-25T12:55:15.648Z,-20.60
2022-12-25T12:57:44.630Z,-20.57
2022-12-25T13:00:20.680Z,-20.51
2022-12-25T13:03:07.829Z,-20.49
2022-12-25T13:05:46.855Z,-20.47
2022-12-25T13:08:34.471Z,-20.46
2022-12-25T13:11:14.345Z,-20.45
2022-12-25T13:13:46.240Z,-20.46
2022-12-25T13:16:40.883Z,-20.41
2022-12-25T13:19:19.023Z,-20.40
2022-12-25T13:21:58.625Z,-20.39
2022-12-25T13:24:31.838Z,-20.38
2022-12-25T13:27:01.706Z,-20.38
2022-12-25T13:29:39.484Z,-20.40
2022-12-25T13:32:19.097Z,-20.38
2022-12-25T13:34:48.843Z,-20.38
2022-12-25T13:37:21.338Z,-20.37
2022-12-25T13:40:02.177Z,-20.37
2022-12-25T13:42:36.859Z,-20.41
2022-12-25T13:45:25.412Z,-20.34
2022-12-25T13:47:55.956Z,-20.34
2022-12-25T13:50:29.837Z,-20.37
2022-12-25T13:53:11.848Z,-20.39
2022-12-25T13:55:42.681Z,-20.40
2022-12-25T13:58:25.361Z,-20.40
2022-12-25T14:01:24.438Z,-20.42
2022-12-25T14:03:55.902Z,-20.42
2022-12-25T14:06:31.279Z,-20.46
2022-12-25T14:09:00.809Z,-20.48
2022-12-25T14:11:32.056Z,-20.53
2022-12-25T14:14:04.906Z,-20.59
2022-12-25T14:16:34.995Z,-20.64
2022-12-25T14:19:04.549Z,-20.65
2022-12-25T14:21:42.335Z,-20.70
2022-12-25T14:24:15.999Z,-20.73
2022-12-25T14:26:45.381Z,-20.71
2022-12-25T14:29:25.064Z,-20.73
2022-12-25T14:32:01.299Z,-20.75
2022-12-25T14:34:31.543Z,-20.79
2022-12-25T14:37:01.688Z,-20.83
2022-12-25T14:39:39.121Z,-20.88
2022-12-25T14:42:26.611Z,-20.89
2022-12-25T14:45:31.252Z,-20.88
2022-12-25T14:48:25.301Z,-20.92
2022-12-25T14:51:04.773Z,-20.99
2022-12-25T14:53:40.582Z,-21.05
2022-12-25T14:56:10.935Z,-21.07
2022-12-25T14:58:47.947Z,-21.12
2022-12-25T15:01:30.547Z,-21.12
2022-12-25T15:04:18.636Z,-21.14
2022-12-25T15:07:07.621Z,-21.14
2022-12-25T15:09:36.965Z,-21.14
2022-12-25T15:12:06.168Z,-21.15
2022-12-25T15:14:38.982Z,-21.13
2022-12-25T15:17:07.865Z,-21.10
2022-12-25T15:19:39.103Z,-21.05
2022-12-25T15:22:10.020Z,-21.06
2022-12-25T15:24:38.975Z,-21.02
2022-12-25T15:27:19.018Z,-20.99
2022-12-25T15:32:38.426Z,-20.94
2022-12-25T15:35:08.016Z,-20.95
2022-12-25T15:37:37.073Z,-20.93
2022-12-25T15:40:07.507Z,-20.92
2022-12-25T15:42:38.162Z,-20.90
2022-12-25T15:45:15.716Z,-20.85
2022-12-25T15:47:44.496Z,-20.80
2022-12-25T15:50:13.446Z,-20.74
2022-12-25T15:52:42.664Z,-20.67
2022-12-25T15:55:12.199Z,-20.62
2022-12-25T15:57:48.181Z,-20.55
2022-12-25T16:00:23.423Z,-20.49
2022-12-25T16:02:53.587Z,-20.43
2022-12-25T16:05:22.857Z,-20.36
2022-12-25T16:07:51.741Z,-20.28
2022-12-25T16:10:21.002Z,-20.22
2022-12-25T16:12:49.839Z,-20.19
2022-12-25T16:15:18.773Z,-20.16
2022-12-25T16:17:47.590Z,-20.08
2022-12-25T16:20:16.556Z,-20.03
2022-12-25T16:22:45.385Z,-20.00
2022-12-25T16:25:20.105Z,-19.93
2022-12-25T16:27:49.292Z,-19.85
2022-12-25T16:30:19.473Z,-19.80
2022-12-25T16:32:50.991Z,-19.78
2022-12-25T16:35:19.935Z,-19.78
2022-12-25T16:37:48.760Z,-19.75
2022-12-25T16:40:18.763Z,-19.75
2022-12-25T16:42:47.987Z,-19.72
2022-12-25T16:45:17.119Z,-19.72
2022-12-25T16:47:46.003Z,-19.73
2022-12-25T16:50:15.024Z,-19.73
2022-12-25T16:52:44.044Z,-19.70
2022-12-25T16:55:13.136Z,-19.67
2022-12-25T16:57:41.997Z,-19.68
2022-12-25T17:00:13.501Z,-19.66
2022-12-25T17:02:42.907Z,-19.64
2022-12-25T17:05:11.949Z,-19.62
2022-12-25T17:07:40.871Z,-19.64
2022-12-25T17:10:10.962Z,-19.65
2022-12-25T17:12:41.132Z,-19.67
2022-12-25T17:15:10.550Z,-19.66
2022-12-25T17:17:39.423Z,-19.69
2022-12-25T17:20:08.902Z,-19.71
2022-12-25T17:22:37.772Z,-19.76
2022-12-25T17:25:06.837Z,-19.75
2022-12-25T17:27:35.644Z,-19.74
2022-12-25T17:30:04.726Z,-19.70
2022-12-25T17:32:35.229Z,-19.70
2022-12-25T17:35:04.105Z,-19.69
2022-12-25T17:37:34.609Z,-19.69
2022-12-25T17:40:03.930Z,-19.71
2022-12-25T17:42:33.146Z,-19.74
2022-12-25T17:45:02.151Z,-19.75
2022-12-25T17:47:32.065Z,-19.78
2022-12-25T17:50:00.987Z,-19.77
2022-12-25T17:52:29.891Z,-19.76
2022-12-25T17:54:58.683Z,-19.74
2022-12-25T17:57:28.053Z,-19.71
2022-12-25T17:59:56.867Z,-19.73
2022-12-25T18:02:26.495Z,-19.75
2022-12-25T18:04:55.680Z,-19.75
2022-12-25T18:07:24.715Z,-19.75
2022-12-25T18:09:53.517Z,-19.75
2022-12-25T18:12:22.346Z,-19.77
2022-12-25T18:14:51.275Z,-19.77
2022-12-25T18:17:20.317Z,-19.79
2022-12-25T18:19:51.485Z,-19.79
2022-12-25T18:22:20.465Z,-19.76
2022-12-25T18:24:49.590Z,-19.73
2022-12-25T18:27:18.679Z,-19.72
2022-12-25T18:29:47.527Z,-19.74
2022-12-25T18:32:16.347Z,-19.77
2022-12-25T18:34:45.235Z,-19.72
2022-12-25T18:37:14.078Z,-19.68
2022-12-25T18:39:43.024Z,-19.65
2022-12-25T18:42:30.212Z,-19.58
2022-12-25T18:44:59.051Z,-19.60
2022-12-25T18:47:27.892Z,-19.61
2022-12-25T18:49:56.737Z,-19.57
2022-12-25T18:52:47.851Z,-19.58
2022-12-25T18:55:14.422Z,-19.57
2022-12-25T18:57:43.263Z,-19.53
2022-12-25T19:00:13.208Z,-19.53
2022-12-25T19:02:42.483Z,-19.53
2022-12-25T19:05:11.557Z,-19.51
2022-12-25T19:07:40.352Z,-19.52
2022-12-25T19:10:10.883Z,-19.51
2022-12-25T19:12:41.128Z,-19.50
2022-12-25T19:15:10.295Z,-19.47
2022-12-25T19:17:39.095Z,-19.43
2022-12-25T19:20:08.960Z,-19.38
2022-12-25T19:22:37.745Z,-19.33
2022-12-25T19:25:07.720Z,-19.34
2022-12-25T19:27:36.871Z,-19.36
2022-12-25T19:30:06.125Z,-19.34
2022-12-25T19:32:34.965Z,-19.32
2022-12-25T19:35:05.046Z,-19.34
2022-12-25T19:37:34.114Z,-19.34
2022-12-25T19:40:03.069Z,-19.31
2022-12-25T19:42:32.204Z,-19.31
2022-12-25T19:45:01.153Z,-19.29
2022-12-25T19:47:31.998Z,-19.27
2022-12-25T19:50:02.885Z,-19.21
2022-12-25T19:52:32.697Z,-19.24
2022-12-25T19:55:01.589Z,-19.28
2022-12-25T19:57:32.636Z,-19.26
2022-12-25T20:00:01.511Z,-19.26
2022-12-25T20:02:33.476Z,-19.26
2022-12-25T20:05:02.431Z,-19.29
2022-12-25T20:07:31.868Z,-19.28
2022-12-25T20:10:00.675Z,-19.29
2022-12-25T20:12:29.510Z,-19.29
2022-12-25T20:14:58.370Z,-19.28
2022-12-25T20:17:27.251Z,-19.28
2022-12-25T20:19:56.082Z,-19.30
2022-12-25T20:22:24.887Z,-19.27
2022-12-25T20:24:53.914Z,-19.27
2022-12-25T20:27:22.929Z,-19.30
2022-12-25T20:29:51.744Z,-19.27
2022-12-25T20:32:20.773Z,-19.28
2022-12-25T20:34:49.635Z,-19.28
2022-12-25T20:37:18.469Z,-19.28
2022-12-25T20:39:47.287Z,-19.28
2022-12-25T20:42:16.113Z,-19.26
2022-12-25T20:44:44.893Z,-19.27
2022-12-25T20:47:14.367Z,-19.31
2022-12-25T20:49:43.315Z,-19.31
2022-12-25T20:52:12.200Z,-19.32
2022-12-25T20:54:41.020Z,-19.30
2022-12-25T20:57:10.450Z,-19.29
2022-12-25T20:59:40.682Z,-19.28
2022-12-25T21:02:33.442Z,-19.31
2022-12-25T21:05:02.840Z,-19.30
2022-12-25T21:07:31.811Z,-19.32
2022-12-25T21:10:00.727Z,-19.28
2022-12-25T21:12:29.629Z,-19.29
2022-12-25T21:14:58.447Z,-19.28
2022-12-25T21:17:27.550Z,-19.33
2022-12-25T21:19:56.339Z,-19.32
2022-12-25T21:22:25.194Z,-19.34
2022-12-25T21:24:54.419Z,-19.40
2022-12-25T21:27:25.556Z,-19.47
2022-12-25T21:29:54.375Z,-19.54
2022-12-25T21:32:41.687Z,-19.58
2022-12-25T21:35:10.592Z,-19.64
2022-12-25T21:37:39.506Z,-19.66
2022-12-25T21:40:14.401Z,-19.71
2022-12-25T21:42:45.020Z,-19.73
2022-12-25T21:45:13.932Z,-19.76
2022-12-25T21:48:01.622Z,-19.76
2022-12-25T21:50:50.030Z,-19.77
2022-12-25T21:53:20.448Z,-19.77
2022-12-25T21:56:01.104Z,-19.79
2022-12-25T21:58:30.354Z,-19.75
2022-12-25T22:01:04.788Z,-19.74
2022-12-25T22:03:34.369Z,-19.71
2022-12-25T22:06:21.963Z,-19.73
2022-12-25T22:08:50.965Z,-19.73
2022-12-25T22:11:38.348Z,-19.77
2022-12-25T22:14:51.496Z,-19.78
2022-12-25T22:17:33.360Z,-19.80
2022-12-25T22:20:02.353Z,-19.84
2022-12-25T22:22:32.771Z,-19.86
2022-12-25T22:25:03.332Z,-19.86
2022-12-25T22:27:34.737Z,-19.87
2022-12-25T22:30:03.804Z,-19.88
2022-12-25T22:32:32.866Z,-19.91
2022-12-25T22:35:01.744Z,-19.93
2022-12-25T22:37:31.803Z,-19.92
2022-12-25T22:40:02.793Z,-19.90
2022-12-25T22:42:33.193Z,-19.88
2022-12-25T22:45:02.164Z,-19.86
2022-12-25T22:47:31.813Z,-19.86
2022-12-25T22:50:00.834Z,-19.92
2022-12-25T22:52:29.820Z,-19.95
2022-12-25T22:54:59.599Z,-20.00
2022-12-25T22:57:28.831Z,-20.06
2022-12-25T22:59:57.772Z,-20.13
2022-12-25T23:02:27.956Z,-20.16
2022-12-25T23:04:57.149Z,-20.18
2022-12-25T23:07:25.999Z,-20.19
2022-12-25T23:09:55.005Z,-20.21
2022-12-25T23:12:42.504Z,-20.22
2022-12-25T23:15:11.585Z,-20.22
2022-12-25T23:17:58.928Z,-20.20
2022-12-25T23:20:46.378Z,-20.21
2022-12-25T23:23:37.009Z,-20.20
2022-12-25T23:26:09.466Z,-20.19
2022-12-25T23:28:59.068Z,-20.22
2022-12-25T23:31:36.932Z,-20.20
2022-12-25T23:34:07.400Z,-20.20
2022-12-25T23:36:36.473Z,-20.18
2022-12-25T23:39:10.015Z,-20.17
2022-12-25T23:41:44.732Z,-20.13
2022-12-25T23:44:14.352Z,-20.07
2022-12-25T23:46:52.721Z,-20.04
2022-12-25T23:49:24.402Z,-20.05
2022-12-25T23:51:54.741Z,-20.05
2022-12-25T23:54:27.315Z,-20.00
2022-12-25T23:57:00.756Z,-20.02
2022-12-25T23:59:31.954Z,-20.08
